sensor_id;sensor_type;location;lat;lon;timestamp;P1;durP1;ratioP1;P2;durP2;ratioP2
16543;SDS011;8384;47.996;7.786;2023-04-03T00:00:57;4.33;;;4.03;;
16543;SDS011;8384;47.996;7.786;2023-04-03T00:03:23;4.83;;;4.43;;
16543;SDS011;8384;47.996;7.786;2023-04-03T00:05:48;4.60;;;4.20;;
16543;SDS011;8384;47.996;7.786;2023-04-03T00:08:13;4.57;;;3.93;;
16543;SDS011;8384;47.996;7.786;2023-04-03T00:10:39;4.30;;;4.00;;
16543;SDS011;8384;47.996;7.786;2023-04-03T00:13:04;4.80;;;4.40;;
16543;SDS011;8384;47.996;7.786;2023-04-03T00:15:31;4.57;;;4.18;;
16543;SDS011;8384;47.996;7.786;2023-04-03T00:17:57;4.80;;;4.40;;
16543;SDS011;8384;47.996;7.786;2023-04-03T00:20:22;4.20;;;3.90;;
16543;SDS011;8384;47.996;7.786;2023-04-03T00:22:48;4.38;;;4.07;;
16543;SDS011;8384;47.996;7.786;2023-04-03T00:25:13;4.63;;;4.22;;
16543;SDS011;8384;47.996;7.786;2023-04-03T00:27:39;4.53;;;4.20;;
16543;SDS011;8384;47.996;7.786;2023-04-03T00:30:05;4.32;;;4.03;;
16543;SDS011;8384;47.996;7.786;2023-04-03T00:32:32;4.38;;;4.07;;
16543;SDS011;8384;47.996;7.786;2023-04-03T00:34:58;4.73;;;4.33;;
16543;SDS011;8384;47.996;7.786;2023-04-03T00:37:23;4.63;;;4.23;;
16543;SDS011;8384;47.996;7.786;2023-04-03T00:39:48;4.50;;;4.15;;
16543;SDS011;8384;47.996;7.786;2023-04-03T00:42:14;4.22;;;3.92;;
16543;SDS011;8384;47.996;7.786;2023-04-03T00:47:05;4.70;;;4.30;;
16543;SDS011;8384;47.996;7.786;2023-04-03T00:49:33;4.40;;;4.10;;
16543;SDS011;8384;47.996;7.786;2023-04-03T00:51:58;4.50;;;4.20;;
16543;SDS011;8384;47.996;7.786;2023-04-03T00:54:24;4.13;;;3.83;;
16543;SDS011;8384;47.996;7.786;2023-04-03T00:56:51;4.70;;;4.30;;
16543;SDS011;8384;47.996;7.786;2023-04-03T00:59:19;4.38;;;3.97;;
16543;SDS011;8384;47.996;7.786;2023-04-03T01:01:50;4.40;;;4.10;;
16543;SDS011;8384;47.996;7.786;2023-04-03T01:04:35;4.70;;;4.30;;
16543;SDS011;8384;47.996;7.786;2023-04-03T01:07:13;4.47;;;4.07;;
16543;SDS011;8384;47.996;7.786;2023-04-03T01:09:41;4.55;;;4.25;;
16543;SDS011;8384;47.996;7.786;2023-04-03T01:15:05;4.20;;;3.90;;
16543;SDS011;8384;47.996;7.786;2023-04-03T01:18:15;4.30;;;3.90;;
16543;SDS011;8384;47.996;7.786;2023-04-03T01:23:12;3.97;;;3.67;;
16543;SDS011;8384;47.996;7.786;2023-04-03T01:25:47;4.35;;;4.05;;
16543;SDS011;8384;47.996;7.786;2023-04-03T01:31:00;4.20;;;3.80;;
16543;SDS011;8384;47.996;7.786;2023-04-03T01:33:34;4.50;;;4.20;;
16543;SDS011;8384;47.996;7.786;2023-04-03T01:36:00;4.40;;;4.00;;
16543;SDS011;8384;47.996;7.786;2023-04-03T01:38:25;4.27;;;3.93;;
16543;SDS011;8384;47.996;7.786;2023-04-03T01:40:51;4.35;;;4.05;;
16543;SDS011;8384;47.996;7.786;2023-04-03T01:43:16;4.30;;;4.00;;
16543;SDS011;8384;47.996;7.786;2023-04-03T01:45:41;4.80;;;4.40;;
16543;SDS011;8384;47.996;7.786;2023-04-03T01:48:07;4.53;;;4.00;;
16543;SDS011;8384;47.996;7.786;2023-04-03T01:50:32;4.67;;;4.27;;
16543;SDS011;8384;47.996;7.786;2023-04-03T01:52:58;4.50;;;4.20;;
16543;SDS011;8384;47.996;7.786;2023-04-03T01:55:23;4.30;;;4.00;;
16543;SDS011;8384;47.996;7.786;2023-04-03T01:57:48;4.10;;;3.80;;
16543;SDS011;8384;47.996;7.786;2023-04-03T02:00:14;4.60;;;4.20;;
16543;SDS011;8384;47.996;7.786;2023-04-03T02:02:39;4.40;;;4.00;;
16543;SDS011;8384;47.996;7.786;2023-04-03T02:05:05;4.53;;;3.90;;
16543;SDS011;8384;47.996;7.786;2023-04-03T02:07:31;4.40;;;4.00;;
16543;SDS011;8384;47.996;7.786;2023-04-03T02:09:56;4.57;;;4.17;;
16543;SDS011;8384;47.996;7.786;2023-04-03T02:12:21;4.57;;;4.17;;
16543;SDS011;8384;47.996;7.786;2023-04-03T02:14:47;4.43;;;4.03;;
16543;SDS011;8384;47.996;7.786;2023-04-03T02:17:12;4.07;;;3.77;;
16543;SDS011;8384;47.996;7.786;2023-04-03T02:19:37;4.53;;;4.17;;
16543;SDS011;8384;47.996;7.786;2023-04-03T02:22:03;4.43;;;4.13;;
16543;SDS011;8384;47.996;7.786;2023-04-03T02:24:29;4.80;;;4.40;;
16543;SDS011;8384;47.996;7.786;2023-04-03T02:26:55;4.70;;;4.30;;
16543;SDS011;8384;47.996;7.786;2023-04-03T02:29:20;4.57;;;4.17;;
16543;SDS011;8384;47.996;7.786;2023-04-03T02:31:45;4.70;;;4.30;;
16543;SDS011;8384;47.996;7.786;2023-04-03T02:34:11;5.07;;;4.67;;
16543;SDS011;8384;47.996;7.786;2023-04-03T02:36:36;5.00;;;4.50;;
16543;SDS011;8384;47.996;7.786;2023-04-03T02:39:02;4.90;;;4.50;;
16543;SDS011;8384;47.996;7.786;2023-04-03T02:41:28;5.00;;;4.50;;
16543;SDS011;8384;47.996;7.786;2023-04-03T02:43:59;4.95;;;4.55;;
16543;SDS011;8384;47.996;7.786;2023-04-03T02:46:25;4.60;;;4.20;;
16543;SDS011;8384;47.996;7.786;2023-04-03T02:48:51;4.70;;;4.30;;
16543;SDS011;8384;47.996;7.786;2023-04-03T02:51:16;4.60;;;4.20;;
16543;SDS011;8384;47.996;7.786;2023-04-03T02:53:41;4.70;;;4.30;;
16543;SDS011;8384;47.996;7.786;2023-04-03T02:56:06;4.40;;;4.00;;
16543;SDS011;8384;47.996;7.786;2023-04-03T02:58:32;4.77;;;4.10;;
16543;SDS011;8384;47.996;7.786;2023-04-03T03:00:57;4.60;;;4.20;;
16543;SDS011;8384;47.996;7.786;2023-04-03T03:03:22;4.45;;;4.05;;
16543;SDS011;8384;47.996;7.786;2023-04-03T03:05:48;4.20;;;3.90;;
16543;SDS011;8384;47.996;7.786;2023-04-03T03:08:13;4.50;;;4.10;;
16543;SDS011;8384;47.996;7.786;2023-04-03T03:10:38;5.37;;;4.93;;
16543;SDS011;8384;47.996;7.786;2023-04-03T03:13:04;5.13;;;4.63;;
16543;SDS011;8384;47.996;7.786;2023-04-03T03:15:29;5.07;;;4.68;;
16543;SDS011;8384;47.996;7.786;2023-04-03T03:17:55;4.20;;;3.90;;
16543;SDS011;8384;47.996;7.786;2023-04-03T03:20:20;5.00;;;4.60;;
16543;SDS011;8384;47.996;7.786;2023-04-03T03:22:46;4.80;;;4.40;;
16543;SDS011;8384;47.996;7.786;2023-04-03T03:25:11;4.70;;;4.30;;
16543;SDS011;8384;47.996;7.786;2023-04-03T03:27:37;4.50;;;4.10;;
16543;SDS011;8384;47.996;7.786;2023-04-03T03:30:02;4.33;;;4.00;;
16543;SDS011;8384;47.996;7.786;2023-04-03T03:32:28;4.25;;;3.88;;
16543;SDS011;8384;47.996;7.786;2023-04-03T03:34:53;4.30;;;3.90;;
16543;SDS011;8384;47.996;7.786;2023-04-03T03:37:18;4.07;;;3.77;;
16543;SDS011;8384;47.996;7.786;2023-04-03T03:39:44;4.20;;;3.90;;
16543;SDS011;8384;47.996;7.786;2023-04-03T03:42:09;4.27;;;3.93;;
16543;SDS011;8384;47.996;7.786;2023-04-03T03:44:34;4.60;;;4.20;;
16543;SDS011;8384;47.996;7.786;2023-04-03T03:47:00;4.27;;;3.87;;
16543;SDS011;8384;47.996;7.786;2023-04-03T03:49:25;4.10;;;3.80;;
16543;SDS011;8384;47.996;7.786;2023-04-03T03:51:51;4.20;;;3.90;;
16543;SDS011;8384;47.996;7.786;2023-04-03T03:54:16;4.40;;;4.00;;
16543;SDS011;8384;47.996;7.786;2023-04-03T03:56:41;4.33;;;3.93;;
16543;SDS011;8384;47.996;7.786;2023-04-03T03:59:07;4.40;;;4.00;;
16543;SDS011;8384;47.996;7.786;2023-04-03T04:01:32;4.17;;;3.87;;
16543;SDS011;8384;47.996;7.786;2023-04-03T04:03:58;3.93;;;3.63;;
16543;SDS011;8384;47.996;7.786;2023-04-03T04:06:23;4.10;;;3.80;;
16543;SDS011;8384;47.996;7.786;2023-04-03T04:08:48;4.30;;;4.00;;
16543;SDS011;8384;47.996;7.786;2023-04-03T04:11:14;4.00;;;3.70;;
16543;SDS011;8384;47.996;7.786;2023-04-03T04:13:39;4.10;;;3.70;;
16543;SDS011;8384;47.996;7.786;2023-04-03T04:16:05;4.43;;;3.95;;
16543;SDS011;8384;47.996;7.786;2023-04-03T04:18:31;3.83;;;3.53;;
16543;SDS011;8384;47.996;7.786;2023-04-03T04:20:57;4.00;;;3.70;;
16543;SDS011;8384;47.996;7.786;2023-04-03T04:23:22;4.30;;;4.00;;
16543;SDS011;8384;47.996;7.786;2023-04-03T04:25:48;4.10;;;3.80;;
16543;SDS011;8384;47.996;7.786;2023-04-03T04:28:15;4.28;;;3.88;;
16543;SDS011;8384;47.996;7.786;2023-04-03T04:30:41;4.85;;;3.83;;
16543;SDS011;8384;47.996;7.786;2023-04-03T04:33:07;4.20;;;3.90;;
16543;SDS011;8384;47.996;7.786;2023-04-03T04:35:32;4.50;;;4.10;;
16543;SDS011;8384;47.996;7.786;2023-04-03T04:37:58;4.55;;;4.15;;
16543;SDS011;8384;47.996;7.786;2023-04-03T04:40:24;4.63;;;4.22;;
16543;SDS011;8384;47.996;7.786;2023-04-03T04:42:50;4.43;;;4.03;;
16543;SDS011;8384;47.996;7.786;2023-04-03T04:45:15;4.60;;;4.20;;
16543;SDS011;8384;47.996;7.786;2023-04-03T04:47:41;4.18;;;3.88;;
16543;SDS011;8384;47.996;7.786;2023-04-03T04:50:06;4.70;;;4.30;;
16543;SDS011;8384;47.996;7.786;2023-04-03T04:52:32;4.20;;;3.90;;
16543;SDS011;8384;47.996;7.786;2023-04-03T04:54:57;4.68;;;4.28;;
16543;SDS011;8384;47.996;7.786;2023-04-03T04:57:23;4.30;;;4.00;;
16543;SDS011;8384;47.996;7.786;2023-04-03T04:59:48;4.30;;;4.00;;
16543;SDS011;8384;47.996;7.786;2023-04-03T05:02:13;4.40;;;4.00;;
16543;SDS011;8384;47.996;7.786;2023-04-03T05:04:39;4.67;;;4.17;;
16543;SDS011;8384;47.996;7.786;2023-04-03T05:07:04;4.88;;;4.47;;
16543;SDS011;8384;47.996;7.786;2023-04-03T05:09:30;4.75;;;4.35;;
16543;SDS011;8384;47.996;7.786;2023-04-03T05:11:55;4.63;;;4.23;;
16543;SDS011;8384;47.996;7.786;2023-04-03T05:14:21;4.90;;;4.50;;
16543;SDS011;8384;47.996;7.786;2023-04-03T05:16:46;4.80;;;4.40;;
16543;SDS011;8384;47.996;7.786;2023-04-03T05:19:12;4.78;;;4.38;;
16543;SDS011;8384;47.996;7.786;2023-04-03T05:21:37;5.40;;;4.90;;
16543;SDS011;8384;47.996;7.786;2023-04-03T05:24:03;5.13;;;4.73;;
16543;SDS011;8384;47.996;7.786;2023-04-03T05:26:29;4.50;;;4.20;;
16543;SDS011;8384;47.996;7.786;2023-04-03T05:28:55;4.90;;;4.50;;
16543;SDS011;8384;47.996;7.786;2023-04-03T05:31:20;4.80;;;4.40;;
16543;SDS011;8384;47.996;7.786;2023-04-03T05:33:46;5.30;;;4.60;;
16543;SDS011;8384;47.996;7.786;2023-04-03T05:36:11;4.90;;;4.50;;
16543;SDS011;8384;47.996;7.786;2023-04-03T05:38:37;4.78;;;4.38;;
16543;SDS011;8384;47.996;7.786;2023-04-03T05:41:03;5.05;;;4.65;;
16543;SDS011;8384;47.996;7.786;2023-04-03T05:43:28;5.13;;;4.73;;
16543;SDS011;8384;47.996;7.786;2023-04-03T05:45:54;5.13;;;4.60;;
16543;SDS011;8384;47.996;7.786;2023-04-03T05:48:19;4.80;;;4.40;;
16543;SDS011;8384;47.996;7.786;2023-04-03T05:50:45;4.80;;;4.40;;
16543;SDS011;8384;47.996;7.786;2023-04-03T05:53:14;5.40;;;4.90;;
16543;SDS011;8384;47.996;7.786;2023-04-03T05:55:46;4.80;;;4.40;;
16543;SDS011;8384;47.996;7.786;2023-04-03T05:58:11;6.13;;;4.50;;
16543;SDS011;8384;47.996;7.786;2023-04-03T06:00:37;4.90;;;4.50;;
16543;SDS011;8384;47.996;7.786;2023-04-03T06:03:03;4.80;;;4.40;;
16543;SDS011;8384;47.996;7.786;2023-04-03T06:05:28;5.17;;;4.67;;
16543;SDS011;8384;47.996;7.786;2023-04-03T06:07:53;5.07;;;4.57;;
16543;SDS011;8384;47.996;7.786;2023-04-03T06:10:18;4.73;;;4.33;;
16543;SDS011;8384;47.996;7.786;2023-04-03T06:12:45;5.00;;;4.60;;
16543;SDS011;8384;47.996;7.786;2023-04-03T06:15:10;4.77;;;4.37;;
16543;SDS011;8384;47.996;7.786;2023-04-03T06:17:36;5.10;;;4.50;;
16543;SDS011;8384;47.996;7.786;2023-04-03T06:20:02;4.80;;;4.40;;
16543;SDS011;8384;47.996;7.786;2023-04-03T06:22:28;5.10;;;4.70;;
16543;SDS011;8384;47.996;7.786;2023-04-03T06:24:54;5.03;;;4.53;;
16543;SDS011;8384;47.996;7.786;2023-04-03T06:27:20;5.00;;;4.60;;
16543;SDS011;8384;47.996;7.786;2023-04-03T06:29:45;4.90;;;4.57;;
16543;SDS011;8384;47.996;7.786;2023-04-03T06:32:10;4.93;;;4.50;;
16543;SDS011;8384;47.996;7.786;2023-04-03T06:34:36;5.47;;;4.93;;
16543;SDS011;8384;47.996;7.786;2023-04-03T06:37:01;5.17;;;4.70;;
16543;SDS011;8384;47.996;7.786;2023-04-03T06:39:27;5.20;;;4.80;;
16543;SDS011;8384;47.996;7.786;2023-04-03T06:41:52;4.70;;;4.30;;
16543;SDS011;8384;47.996;7.786;2023-04-03T06:44:19;4.93;;;4.53;;
16543;SDS011;8384;47.996;7.786;2023-04-03T06:46:44;4.90;;;4.37;;
16543;SDS011;8384;47.996;7.786;2023-04-03T06:49:11;4.68;;;4.28;;
16543;SDS011;8384;47.996;7.786;2023-04-03T06:51:37;4.80;;;4.40;;
16543;SDS011;8384;47.996;7.786;2023-04-03T06:54:03;4.90;;;4.50;;
16543;SDS011;8384;47.996;7.786;2023-04-03T06:56:29;4.40;;;4.03;;
16543;SDS011;8384;47.996;7.786;2023-04-03T06:58:55;4.17;;;3.80;;
16543;SDS011;8384;47.996;7.786;2023-04-03T07:01:23;4.90;;;4.50;;
16543;SDS011;8384;47.996;7.786;2023-04-03T07:03:51;5.13;;;4.63;;
16543;SDS011;8384;47.996;7.786;2023-04-03T07:06:17;4.80;;;4.50;;
16543;SDS011;8384;47.996;7.786;2023-04-03T07:08:43;4.57;;;4.18;;
16543;SDS011;8384;47.996;7.786;2023-04-03T07:11:09;4.20;;;3.80;;
16543;SDS011;8384;47.996;7.786;2023-04-03T07:13:36;4.07;;;3.75;;
16543;SDS011;8384;47.996;7.786;2023-04-03T07:16:02;4.13;;;3.80;;
16543;SDS011;8384;47.996;7.786;2023-04-03T07:18:28;4.20;;;3.88;;
16543;SDS011;8384;47.996;7.786;2023-04-03T07:20:54;4.40;;;3.63;;
16543;SDS011;8384;47.996;7.786;2023-04-03T07:23:19;3.57;;;3.27;;
16543;SDS011;8384;47.996;7.786;2023-04-03T07:25:45;3.53;;;3.25;;
16543;SDS011;8384;47.996;7.786;2023-04-03T07:28:11;3.60;;;3.30;;
16543;SDS011;8384;47.996;7.786;2023-04-03T07:30:47;3.35;;;3.05;;
16543;SDS011;8384;47.996;7.786;2023-04-03T07:33:14;2.72;;;2.53;;
16543;SDS011;8384;47.996;7.786;2023-04-03T07:35:41;2.55;;;2.20;;
16543;SDS011;8384;47.996;7.786;2023-04-03T07:38:07;2.17;;;2.00;;
16543;SDS011;8384;47.996;7.786;2023-04-03T07:40:33;2.10;;;1.70;;
16543;SDS011;8384;47.996;7.786;2023-04-03T07:42:58;2.15;;;1.92;;
16543;SDS011;8384;47.996;7.786;2023-04-03T07:45:24;2.10;;;2.00;;
16543;SDS011;8384;47.996;7.786;2023-04-03T07:47:50;1.95;;;1.85;;
16543;SDS011;8384;47.996;7.786;2023-04-03T07:50:15;2.33;;;2.13;;
16543;SDS011;8384;47.996;7.786;2023-04-03T07:52:41;2.40;;;2.20;;
16543;SDS011;8384;47.996;7.786;2023-04-03T07:55:07;2.50;;;2.30;;
16543;SDS011;8384;47.996;7.786;2023-04-03T07:57:32;2.50;;;2.30;;
16543;SDS011;8384;47.996;7.786;2023-04-03T07:59:58;2.30;;;2.20;;
16543;SDS011;8384;47.996;7.786;2023-04-03T08:02:23;2.70;;;2.50;;
16543;SDS011;8384;47.996;7.786;2023-04-03T08:04:48;2.30;;;2.20;;
16543;SDS011;8384;47.996;7.786;2023-04-03T08:07:14;2.60;;;2.40;;
16543;SDS011;8384;47.996;7.786;2023-04-03T08:09:40;2.67;;;2.47;;
16543;SDS011;8384;47.996;7.786;2023-04-03T08:12:05;2.40;;;2.30;;
16543;SDS011;8384;47.996;7.786;2023-04-03T08:14:31;2.80;;;2.60;;
16543;SDS011;8384;47.996;7.786;2023-04-03T08:16:59;2.83;;;2.63;;
16543;SDS011;8384;47.996;7.786;2023-04-03T08:19:25;2.90;;;2.70;;
16543;SDS011;8384;47.996;7.786;2023-04-03T08:21:51;2.80;;;2.60;;
16543;SDS011;8384;47.996;7.786;2023-04-03T08:24:16;2.80;;;2.60;;
16543;SDS011;8384;47.996;7.786;2023-04-03T08:26:41;3.10;;;2.80;;
16543;SDS011;8384;47.996;7.786;2023-04-03T08:29:06;4.30;;;3.90;;
16543;SDS011;8384;47.996;7.786;2023-04-03T08:31:32;2.90;;;2.70;;
16543;SDS011;8384;47.996;7.786;2023-04-03T08:33:57;3.10;;;2.90;;
16543;SDS011;8384;47.996;7.786;2023-04-03T08:36:24;3.10;;;2.90;;
16543;SDS011;8384;47.996;7.786;2023-04-03T08:38:52;3.00;;;2.80;;
16543;SDS011;8384;47.996;7.786;2023-04-03T08:46:41;3.45;;;3.15;;
16543;SDS011;8384;47.996;7.786;2023-04-03T08:49:22;3.37;;;3.10;;
16543;SDS011;8384;47.996;7.786;2023-04-03T08:51:51;3.30;;;3.10;;
16543;SDS011;8384;47.996;7.786;2023-04-03T08:54:37;4.10;;;3.80;;
16543;SDS011;8384;47.996;7.786;2023-04-03T08:57:14;3.60;;;3.30;;
16543;SDS011;8384;47.996;7.786;2023-04-03T08:59:39;5.50;;;5.00;;
16543;SDS011;8384;47.996;7.786;2023-04-03T09:02:18;3.73;;;3.43;;
16543;SDS011;8384;47.996;7.786;2023-04-03T09:04:50;3.80;;;3.50;;
16543;SDS011;8384;47.996;7.786;2023-04-03T09:07:21;4.30;;;3.90;;
16543;SDS011;8384;47.996;7.786;2023-04-03T09:09:56;4.00;;;3.70;;
16543;SDS011;8384;47.996;7.786;2023-04-03T09:12:29;3.90;;;3.60;;
16543;SDS011;8384;47.996;7.786;2023-04-03T09:15:09;3.67;;;3.38;;
16543;SDS011;8384;47.996;7.786;2023-04-03T09:20:39;3.50;;;3.20;;
16543;SDS011;8384;47.996;7.786;2023-04-03T09:23:24;3.40;;;3.20;;
16543;SDS011;8384;47.996;7.786;2023-04-03T09:26:05;3.60;;;3.30;;
16543;SDS011;8384;47.996;7.786;2023-04-03T09:28:39;3.45;;;3.22;;
16543;SDS011;8384;47.996;7.786;2023-04-03T09:31:16;3.50;;;3.20;;
16543;SDS011;8384;47.996;7.786;2023-04-03T09:33:45;7.22;;;6.55;;
16543;SDS011;8384;47.996;7.786;2023-04-03T09:36:12;3.90;;;3.60;;
16543;SDS011;8384;47.996;7.786;2023-04-03T09:38:37;3.88;;;3.58;;
16543;SDS011;8384;47.996;7.786;2023-04-03T09:41:06;3.63;;;3.33;;
16543;SDS011;8384;47.996;7.786;2023-04-03T09:43:40;3.70;;;3.30;;
16543;SDS011;8384;47.996;7.786;2023-04-03T09:46:31;3.30;;;3.00;;
16543;SDS011;8384;47.996;7.786;2023-04-03T09:48:59;3.20;;;2.90;;
16543;SDS011;8384;47.996;7.786;2023-04-03T09:51:29;2.90;;;2.60;;
16543;SDS011;8384;47.996;7.786;2023-04-03T09:53:56;2.67;;;2.47;;
16543;SDS011;8384;47.996;7.786;2023-04-03T09:56:23;2.43;;;2.33;;
16543;SDS011;8384;47.996;7.786;2023-04-03T10:06:40;2.38;;;2.17;;
16543;SDS011;8384;47.996;7.786;2023-04-03T10:09:21;2.23;;;2.10;;
16543;SDS011;8384;47.996;7.786;2023-04-03T10:12:10;2.05;;;1.95;;
16543;SDS011;8384;47.996;7.786;2023-04-03T10:14:38;2.03;;;1.92;;
16543;SDS011;8384;47.996;7.786;2023-04-03T10:20:39;2.10;;;2.00;;
16543;SDS011;8384;47.996;7.786;2023-04-03T10:23:16;2.00;;;1.80;;
16543;SDS011;8384;47.996;7.786;2023-04-03T10:25:55;1.90;;;1.80;;
16543;SDS011;8384;47.996;7.786;2023-04-03T10:28:44;1.90;;;1.80;;
16543;SDS011;8384;47.996;7.786;2023-04-03T10:31:19;1.75;;;1.65;;
16543;SDS011;8384;47.996;7.786;2023-04-03T10:48:14;1.83;;;1.73;;
16543;SDS011;8384;47.996;7.786;2023-04-03T10:53:41;1.83;;;1.73;;
16543;SDS011;8384;47.996;7.786;2023-04-03T10:56:19;1.83;;;1.73;;
16543;SDS011;8384;47.996;7.786;2023-04-03T10:59:18;4.47;;;4.07;;
16543;SDS011;8384;47.996;7.786;2023-04-03T11:01:43;1.75;;;1.63;;
16543;SDS011;8384;47.996;7.786;2023-04-03T11:04:13;2.20;;;1.90;;
16543;SDS011;8384;47.996;7.786;2023-04-03T11:06:52;1.92;;;1.80;;
16543;SDS011;8384;47.996;7.786;2023-04-03T11:09:40;1.95;;;1.85;;
16543;SDS011;8384;47.996;7.786;2023-04-03T11:12:13;2.03;;;1.92;;
16543;SDS011;8384;47.996;7.786;2023-04-03T11:14:42;2.08;;;1.92;;
16543;SDS011;8384;47.996;7.786;2023-04-03T11:19:45;1.83;;;1.73;;
16543;SDS011;8384;47.996;7.786;2023-04-03T11:25:05;2.10;;;2.00;;
16543;SDS011;8384;47.996;7.786;2023-04-03T11:27:41;2.03;;;1.93;;
16543;SDS011;8384;47.996;7.786;2023-04-03T11:30:18;2.20;;;2.10;;
16543;SDS011;8384;47.996;7.786;2023-04-03T11:35:27;1.87;;;1.70;;
16543;SDS011;8384;47.996;7.786;2023-04-03T11:37:53;2.25;;;1.90;;
16543;SDS011;8384;47.996;7.786;2023-04-03T11:42:54;1.80;;;1.70;;
16543;SDS011;8384;47.996;7.786;2023-04-03T11:45:36;1.80;;;1.70;;
16543;SDS011;8384;47.996;7.786;2023-04-03T11:50:43;2.13;;;1.92;;
16543;SDS011;8384;47.996;7.786;2023-04-03T11:55:44;2.00;;;1.90;;
16543;SDS011;8384;47.996;7.786;2023-04-03T11:58:17;1.97;;;1.87;;
16543;SDS011;8384;47.996;7.786;2023-04-03T12:05:49;2.10;;;1.92;;
16543;SDS011;8384;47.996;7.786;2023-04-03T12:08:21;2.13;;;1.92;;
16543;SDS011;8384;47.996;7.786;2023-04-03T12:16:03;1.90;;;1.80;;
16543;SDS011;8384;47.996;7.786;2023-04-03T12:18:43;2.20;;;2.00;;
16543;SDS011;8384;47.996;7.786;2023-04-03T12:21:22;2.05;;;1.95;;
16543;SDS011;8384;47.996;7.786;2023-04-03T12:26:38;1.90;;;1.80;;
16543;SDS011;8384;47.996;7.786;2023-04-03T12:41:01;2.30;;;2.10;;
16543;SDS011;8384;47.996;7.786;2023-04-03T12:43:42;2.45;;;2.25;;
16543;SDS011;8384;47.996;7.786;2023-04-03T12:46:19;1.95;;;1.85;;
16543;SDS011;8384;47.996;7.786;2023-04-03T12:48:48;2.00;;;1.90;;
16543;SDS011;8384;47.996;7.786;2023-04-03T12:51:20;2.13;;;1.95;;
16543;SDS011;8384;47.996;7.786;2023-04-03T12:53:51;2.20;;;2.10;;
16543;SDS011;8384;47.996;7.786;2023-04-03T12:56:24;2.28;;;2.00;;
16543;SDS011;8384;47.996;7.786;2023-04-03T12:58:52;2.30;;;2.10;;
16543;SDS011;8384;47.996;7.786;2023-04-03T13:01:23;2.10;;;2.00;;
16543;SDS011;8384;47.996;7.786;2023-04-03T13:03:51;2.15;;;1.95;;
16543;SDS011;8384;47.996;7.786;2023-04-03T13:06:19;2.30;;;2.10;;
16543;SDS011;8384;47.996;7.786;2023-04-03T13:08:50;2.47;;;2.05;;
16543;SDS011;8384;47.996;7.786;2023-04-03T13:11:17;2.30;;;2.10;;
16543;SDS011;8384;47.996;7.786;2023-04-03T13:13:59;2.10;;;1.85;;
16543;SDS011;8384;47.996;7.786;2023-04-03T13:16:26;2.10;;;1.90;;
16543;SDS011;8384;47.996;7.786;2023-04-03T13:18:53;2.20;;;2.00;;
16543;SDS011;8384;47.996;7.786;2023-04-03T13:21:23;2.30;;;2.10;;
16543;SDS011;8384;47.996;7.786;2023-04-03T13:23:51;2.30;;;2.10;;
16543;SDS011;8384;47.996;7.786;2023-04-03T13:26:22;2.30;;;2.10;;
16543;SDS011;8384;47.996;7.786;2023-04-03T13:28:50;2.40;;;2.20;;
16543;SDS011;8384;47.996;7.786;2023-04-03T13:31:22;2.50;;;2.22;;
16543;SDS011;8384;47.996;7.786;2023-04-03T13:33:57;2.42;;;2.22;;
16543;SDS011;8384;47.996;7.786;2023-04-03T13:36:31;2.53;;;2.20;;
16543;SDS011;8384;47.996;7.786;2023-04-03T13:39:04;2.20;;;2.10;;
16543;SDS011;8384;47.996;7.786;2023-04-03T13:41:33;2.50;;;2.30;;
16543;SDS011;8384;47.996;7.786;2023-04-03T13:46:57;2.40;;;2.20;;
16543;SDS011;8384;47.996;7.786;2023-04-03T13:51:59;2.47;;;2.13;;
16543;SDS011;8384;47.996;7.786;2023-04-03T13:54:36;2.40;;;2.20;;
16543;SDS011;8384;47.996;7.786;2023-04-03T13:57:10;2.10;;;1.90;;
16543;SDS011;8384;47.996;7.786;2023-04-03T13:59:39;4.45;;;4.05;;
16543;SDS011;8384;47.996;7.786;2023-04-03T14:04:47;2.30;;;2.10;;
16543;SDS011;8384;47.996;7.786;2023-04-03T14:07:15;2.00;;;1.88;;
16543;SDS011;8384;47.996;7.786;2023-04-03T14:09:43;2.35;;;1.90;;
16543;SDS011;8384;47.996;7.786;2023-04-03T14:12:12;2.35;;;2.08;;
16543;SDS011;8384;47.996;7.786;2023-04-03T14:14:41;2.10;;;1.93;;
16543;SDS011;8384;47.996;7.786;2023-04-03T14:17:16;2.67;;;2.13;;
16543;SDS011;8384;47.996;7.786;2023-04-03T14:19:44;2.45;;;2.00;;
16543;SDS011;8384;47.996;7.786;2023-04-03T14:22:13;2.22;;;2.03;;
16543;SDS011;8384;47.996;7.786;2023-04-03T14:24:43;2.20;;;2.00;;
16543;SDS011;8384;47.996;7.786;2023-04-03T14:27:17;2.30;;;2.10;;
16543;SDS011;8384;47.996;7.786;2023-04-03T14:29:48;2.75;;;2.25;;
16543;SDS011;8384;47.996;7.786;2023-04-03T14:32:15;2.35;;;2.15;;
16543;SDS011;8384;47.996;7.786;2023-04-03T14:34:42;2.33;;;2.13;;
16543;SDS011;8384;47.996;7.786;2023-04-03T14:37:12;2.78;;;2.20;;
16543;SDS011;8384;47.996;7.786;2023-04-03T14:39:39;2.30;;;2.10;;
16543;SDS011;8384;47.996;7.786;2023-04-03T14:42:05;2.47;;;2.28;;
16543;SDS011;8384;47.996;7.786;2023-04-03T14:44:34;2.30;;;2.10;;
16543;SDS011;8384;47.996;7.786;2023-04-03T14:47:00;2.27;;;2.00;;
16543;SDS011;8384;47.996;7.786;2023-04-03T14:49:28;2.10;;;1.90;;
16543;SDS011;8384;47.996;7.786;2023-04-03T14:51:55;2.00;;;1.90;;
16543;SDS011;8384;47.996;7.786;2023-04-03T14:54:21;2.28;;;2.10;;
16543;SDS011;8384;47.996;7.786;2023-04-03T14:56:52;2.67;;;2.35;;
16543;SDS011;8384;47.996;7.786;2023-04-03T14:59:17;2.20;;;2.00;;
16543;SDS011;8384;47.996;7.786;2023-04-03T15:01:44;3.03;;;2.20;;
16543;SDS011;8384;47.996;7.786;2023-04-03T15:04:13;2.23;;;2.00;;
16543;SDS011;8384;47.996;7.786;2023-04-03T15:06:40;2.65;;;2.00;;
16543;SDS011;8384;47.996;7.786;2023-04-03T15:09:10;2.38;;;2.15;;
16543;SDS011;8384;47.996;7.786;2023-04-03T15:11:49;2.22;;;2.03;;
16543;SDS011;8384;47.996;7.786;2023-04-03T15:14:16;2.40;;;2.17;;
16543;SDS011;8384;47.996;7.786;2023-04-03T15:16:42;2.50;;;2.30;;
16543;SDS011;8384;47.996;7.786;2023-04-03T15:19:07;2.77;;;2.57;;
16543;SDS011;8384;47.996;7.786;2023-04-03T15:21:33;2.87;;;2.40;;
16543;SDS011;8384;47.996;7.786;2023-04-03T15:23:58;2.65;;;2.28;;
16543;SDS011;8384;47.996;7.786;2023-04-03T15:26:24;2.33;;;2.10;;
16543;SDS011;8384;47.996;7.786;2023-04-03T15:28:49;4.20;;;3.88;;
16543;SDS011;8384;47.996;7.786;2023-04-03T15:31:15;3.87;;;3.53;;
16543;SDS011;8384;47.996;7.786;2023-04-03T15:33:40;3.30;;;2.50;;
16543;SDS011;8384;47.996;7.786;2023-04-03T15:36:05;2.30;;;2.10;;
16543;SDS011;8384;47.996;7.786;2023-04-03T15:38:31;3.10;;;2.10;;
16543;SDS011;8384;47.996;7.786;2023-04-03T15:40:57;2.40;;;2.20;;
16543;SDS011;8384;47.996;7.786;2023-04-03T15:43:22;2.38;;;2.17;;
16543;SDS011;8384;47.996;7.786;2023-04-03T15:45:48;2.43;;;2.10;;
16543;SDS011;8384;47.996;7.786;2023-04-03T15:48:14;2.22;;;2.03;;
16543;SDS011;8384;47.996;7.786;2023-04-03T15:50:40;2.23;;;2.10;;
16543;SDS011;8384;47.996;7.786;2023-04-03T15:53:05;2.30;;;2.10;;
16543;SDS011;8384;47.996;7.786;2023-04-03T15:55:32;2.28;;;1.90;;
16543;SDS011;8384;47.996;7.786;2023-04-03T15:58:00;2.23;;;2.03;;
16543;SDS011;8384;47.996;7.786;2023-04-03T16:00:26;2.10;;;1.90;;
16543;SDS011;8384;47.996;7.786;2023-04-03T16:02:53;2.50;;;2.30;;
16543;SDS011;8384;47.996;7.786;2023-04-03T16:05:23;2.35;;;2.13;;
16543;SDS011;8384;47.996;7.786;2023-04-03T16:07:49;2.30;;;2.10;;
16543;SDS011;8384;47.996;7.786;2023-04-03T16:10:16;2.10;;;1.90;;
16543;SDS011;8384;47.996;7.786;2023-04-03T16:12:43;2.20;;;2.00;;
16543;SDS011;8384;47.996;7.786;2023-04-03T16:15:09;2.70;;;2.05;;
16543;SDS011;8384;47.996;7.786;2023-04-03T16:17:36;2.30;;;2.10;;
16543;SDS011;8384;47.996;7.786;2023-04-03T16:20:02;2.88;;;2.30;;
16543;SDS011;8384;47.996;7.786;2023-04-03T16:22:29;2.75;;;2.13;;
16543;SDS011;8384;47.996;7.786;2023-04-03T16:24:55;2.30;;;2.10;;
16543;SDS011;8384;47.996;7.786;2023-04-03T16:27:20;2.40;;;2.20;;
16543;SDS011;8384;47.996;7.786;2023-04-03T16:29:46;2.30;;;2.10;;
16543;SDS011;8384;47.996;7.786;2023-04-03T16:32:11;2.40;;;2.20;;
16543;SDS011;8384;47.996;7.786;2023-04-03T16:34:38;3.53;;;2.20;;
16543;SDS011;8384;47.996;7.786;2023-04-03T16:37:05;2.15;;;1.95;;
16543;SDS011;8384;47.996;7.786;2023-04-03T16:39:30;2.10;;;1.90;;
16543;SDS011;8384;47.996;7.786;2023-04-03T16:41:56;3.00;;;1.90;;